sensor_id;sensor_type;location;lat;lon;timestamp;temperature;humidity
15969;DHT22;8085;53.472;9.794;2022-11-15T00:00:44;5.70;99.90
15969;DHT22;8085;53.472;9.794;2022-11-15T00:03:13;5.70;99.90
15969;DHT22;8085;53.472;9.794;2022-11-15T00:05:40;5.80;99.90
15969;DHT22;8085;53.472;9.794;2022-11-15T00:08:07;5.80;99.90
15969;DHT22;8085;53.472;9.794;2022-11-15T00:10:35;5.90;99.90
15969;DHT22;8085;53.472;9.794;2022-11-15T00:13:04;5.90;99.90
15969;DHT22;8085;53.472;9.794;2022-11-15T00:15:31;6.00;99.90
15969;DHT22;8085;53.472;9.794;2022-11-15T00:18:00;6.10;99.90
15969;DHT22;8085;53.472;9.794;2022-11-15T00:20:27;6.10;99.90
15969;DHT22;8085;53.472;9.794;2022-11-15T00:22:54;6.20;99.90
15969;DHT22;8085;53.472;9.794;2022-11-15T00:25:20;6.20;99.90
15969;DHT22;8085;53.472;9.794;2022-11-15T00:27:48;6.20;99.90
15969;DHT22;8085;53.472;9.794;2022-11-15T00:30:17;6.30;99.90
15969;DHT22;8085;53.472;9.794;2022-11-15T00:32:44;6.30;99.90
15969;DHT22;8085;53.472;9.794;2022-11-15T00:35:10;6.40;99.90
15969;DHT22;8085;53.472;9.794;2022-11-15T00:37:37;6.50;99.90
15969;DHT22;8085;53.472;9.794;2022-11-15T00:40:05;6.60;99.90
15969;DHT22;8085;53.472;9.794;2022-11-15T00:42:32;6.60;99.90
15969;DHT22;8085;53.472;9.794;2022-11-15T00:45:00;6.70;99.90
15969;DHT22;8085;53.472;9.794;2022-11-15T00:47:27;6.80;99.90
15969;DHT22;8085;53.472;9.794;2022-11-15T00:49:54;6.80;99.90
15969;DHT22;8085;53.472;9.794;2022-11-15T00:52:20;6.90;99.90
15969;DHT22;8085;53.472;9.794;2022-11-15T00:54:47;6.90;99.90
15969;DHT22;8085;53.472;9.794;2022-11-15T00:57:14;7.00;99.90
15969;DHT22;8085;53.472;9.794;2022-11-15T00:59:41;7.00;99.90
15969;DHT22;8085;53.472;9.794;2022-11-15T01:02:09;7.00;99.90
15969;DHT22;8085;53.472;9.794;2022-11-15T01:04:36;7.00;99.90
15969;DHT22;8085;53.472;9.794;2022-11-15T01:07:03;6.90;99.90
15969;DHT22;8085;53.472;9.794;2022-11-15T01:09:29;7.00;99.90
15969;DHT22;8085;53.472;9.794;2022-11-15T01:11:56;7.00;99.90
15969;DHT22;8085;53.472;9.794;2022-11-15T01:14:23;7.00;99.90
15969;DHT22;8085;53.472;9.794;2022-11-15T01:16:50;7.00;99.90
15969;DHT22;8085;53.472;9.794;2022-11-15T01:19:18;7.00;99.90
15969;DHT22;8085;53.472;9.794;2022-11-15T01:21:44;7.00;99.90
15969;DHT22;8085;53.472;9.794;2022-11-15T01:24:12;7.00;99.90
15969;DHT22;8085;53.472;9.794;2022-11-15T01:26:39;7.10;99.90
15969;DHT22;8085;53.472;9.794;2022-11-15T01:29:06;7.00;99.90
15969;DHT22;8085;53.472;9.794;2022-11-15T01:31:33;7.00;99.90
15969;DHT22;8085;53.472;9.794;2022-11-15T01:34:00;7.00;99.90
15969;DHT22;8085;53.472;9.794;2022-11-15T01:36:28;7.00;99.90
15969;DHT22;8085;53.472;9.794;2022-11-15T01:38:55;6.90;99.90
15969;DHT22;8085;53.472;9.794;2022-11-15T01:41:25;6.90;99.90
15969;DHT22;8085;53.472;9.794;2022-11-15T01:43:54;6.90;99.90
15969;DHT22;8085;53.472;9.794;2022-11-15T01:46:28;6.90;99.90
15969;DHT22;8085;53.472;9.794;2022-11-15T01:48:58;6.80;99.90
15969;DHT22;8085;53.472;9.794;2022-11-15T01:51:29;6.80;99.90
15969;DHT22;8085;53.472;9.794;2022-11-15T01:54:01;6.70;99.90
15969;DHT22;8085;53.472;9.794;2022-11-15T01:56:31;6.70;99.90
15969;DHT22;8085;53.472;9.794;2022-11-15T01:59:00;6.70;99.90
15969;DHT22;8085;53.472;9.794;2022-11-15T02:01:30;6.60;99.90
15969;DHT22;8085;53.472;9.794;2022-11-15T02:04:00;6.60;99.90
15969;DHT22;8085;53.472;9.794;2022-11-15T02:06:29;6.60;99.90
15969;DHT22;8085;53.472;9.794;2022-11-15T02:08:57;6.50;99.90
15969;DHT22;8085;53.472;9.794;2022-11-15T02:11:24;6.50;99.90
15969;DHT22;8085;53.472;9.794;2022-11-15T02:13:51;6.40;99.90
15969;DHT22;8085;53.472;9.794;2022-11-15T02:16:25;6.30;99.90
15969;DHT22;8085;53.472;9.794;2022-11-15T02:18:59;6.20;99.90
15969;DHT22;8085;53.472;9.794;2022-11-15T02:21:33;6.10;99.90
15969;DHT22;8085;53.472;9.794;2022-11-15T02:24:25;6.00;99.90
15969;DHT22;8085;53.472;9.794;2022-11-15T02:30:16;5.60;99.90
15969;DHT22;8085;53.472;9.794;2022-11-15T02:32:46;5.50;99.90
15969;DHT22;8085;53.472;9.794;2022-11-15T02:35:23;5.40;99.90
15969;DHT22;8085;53.472;9.794;2022-11-15T02:37:55;5.40;99.90
15969;DHT22;8085;53.472;9.794;2022-11-15T02:40:30;5.30;99.90
15969;DHT22;8085;53.472;9.794;2022-11-15T02:43:07;5.20;99.90
15969;DHT22;8085;53.472;9.794;2022-11-15T02:45:57;5.20;99.90
15969;DHT22;8085;53.472;9.794;2022-11-15T02:48:28;5.10;99.90
15969;DHT22;8085;53.472;9.794;2022-11-15T02:50:56;5.00;99.90
15969;DHT22;8085;53.472;9.794;2022-11-15T02:53:24;5.00;99.90
15969;DHT22;8085;53.472;9.794;2022-11-15T02:55:52;4.90;99.90
15969;DHT22;8085;53.472;9.794;2022-11-15T02:58:41;4.90;99.90
15969;DHT22;8085;53.472;9.794;2022-11-15T03:01:19;4.80;99.90
15969;DHT22;8085;53.472;9.794;2022-11-15T03:03:59;4.80;99.90
15969;DHT22;8085;53.472;9.794;2022-11-15T03:06:35;4.80;99.90
15969;DHT22;8085;53.472;9.794;2022-11-15T03:09:07;4.80;99.90
15969;DHT22;8085;53.472;9.794;2022-11-15T03:11:38;4.80;99.90
15969;DHT22;8085;53.472;9.794;2022-11-15T03:14:16;4.70;99.90
15969;DHT22;8085;53.472;9.794;2022-11-15T03:16:51;4.70;99.90
15969;DHT22;8085;53.472;9.794;2022-11-15T03:19:26;4.60;99.90
15969;DHT22;8085;53.472;9.794;2022-11-15T03:21:55;4.60;99.90
15969;DHT22;8085;53.472;9.794;2022-11-15T03:24:25;4.60;99.90
15969;DHT22;8085;53.472;9.794;2022-11-15T03:26:55;4.60;99.90
15969;DHT22;8085;53.472;9.794;2022-11-15T03:29:27;4.60;99.90
15969;DHT22;8085;53.472;9.794;2022-11-15T03:32:00;4.60;99.90
15969;DHT22;8085;53.472;9.794;2022-11-15T03:34:32;4.60;99.90
15969;DHT22;8085;53.472;9.794;2022-11-15T03:37:00;4.60;99.90
15969;DHT22;8085;53.472;9.794;2022-11-15T03:39:28;4.50;99.90
15969;DHT22;8085;53.472;9.794;2022-11-15T03:42:04;4.50;99.90
15969;DHT22;8085;53.472;9.794;2022-11-15T03:44:40;4.50;99.90
15969;DHT22;8085;53.472;9.794;2022-11-15T03:47:12;4.50;99.90
15969;DHT22;8085;53.472;9.794;2022-11-15T03:49:44;4.50;99.90
15969;DHT22;8085;53.472;9.794;2022-11-15T03:52:11;4.40;99.90
15969;DHT22;8085;53.472;9.794;2022-11-15T03:54:48;4.40;99.90
15969;DHT22;8085;53.472;9.794;2022-11-15T03:57:15;4.40;99.90
15969;DHT22;8085;53.472;9.794;2022-11-15T03:59:42;4.40;99.90
15969;DHT22;8085;53.472;9.794;2022-11-15T04:02:11;4.40;99.90
15969;DHT22;8085;53.472;9.794;2022-11-15T04:04:38;4.50;99.90
15969;DHT22;8085;53.472;9.794;2022-11-15T04:07:05;4.50;99.90
15969;DHT22;8085;53.472;9.794;2022-11-15T04:09:32;4.60;99.90
15969;DHT22;8085;53.472;9.794;2022-11-15T04:11:58;4.60;99.90
15969;DHT22;8085;53.472;9.794;2022-11-15T04:14:25;4.60;99.90
15969;DHT22;8085;53.472;9.794;2022-11-15T04:16:52;4.70;99.90
15969;DHT22;8085;53.472;9.794;2022-11-15T04:19:20;4.70;99.90
15969;DHT22;8085;53.472;9.794;2022-11-15T04:22:04;4.70;99.90
15969;DHT22;8085;53.472;9.794;2022-11-15T04:24:49;4.80;99.90
15969;DHT22;8085;53.472;9.794;2022-11-15T04:27:15;4.80;99.90
15969;DHT22;8085;53.472;9.794;2022-11-15T04:29:42;4.90;99.90
15969;DHT22;8085;53.472;9.794;2022-11-15T04:32:09;4.90;99.90
15969;DHT22;8085;53.472;9.794;2022-11-15T04:34:37;4.90;99.90
15969;DHT22;8085;53.472;9.794;2022-11-15T04:37:04;4.90;99.90
15969;DHT22;8085;53.472;9.794;2022-11-15T04:39:40;4.90;99.90
15969;DHT22;8085;53.472;9.794;2022-11-15T04:42:08;4.90;99.90
15969;DHT22;8085;53.472;9.794;2022-11-15T04:44:35;5.00;99.90
15969;DHT22;8085;53.472;9.794;2022-11-15T04:47:01;5.00;99.90
15969;DHT22;8085;53.472;9.794;2022-11-15T04:49:28;5.00;99.90
15969;DHT22;8085;53.472;9.794;2022-11-15T04:51:57;5.00;99.90
15969;DHT22;8085;53.472;9.794;2022-11-15T04:54:23;5.00;99.90
15969;DHT22;8085;53.472;9.794;2022-11-15T04:56:50;5.10;99.90
15969;DHT22;8085;53.472;9.794;2022-11-15T04:59:17;5.10;99.90
15969;DHT22;8085;53.472;9.794;2022-11-15T05:01:44;5.10;99.90
15969;DHT22;8085;53.472;9.794;2022-11-15T05:04:11;5.20;99.90
15969;DHT22;8085;53.472;9.794;2022-11-15T05:06:49;5.20;99.90
15969;DHT22;8085;53.472;9.794;2022-11-15T05:09:18;5.20;99.90
15969;DHT22;8085;53.472;9.794;2022-11-15T05:11:46;5.20;99.90
15969;DHT22;8085;53.472;9.794;2022-11-15T05:14:13;5.30;99.90
15969;DHT22;8085;53.472;9.794;2022-11-15T05:16:41;5.30;99.90
15969;DHT22;8085;53.472;9.794;2022-11-15T05:19:08;5.30;99.90
15969;DHT22;8085;53.472;9.794;2022-11-15T05:21:35;5.30;99.90
15969;DHT22;8085;53.472;9.794;2022-11-15T05:24:02;5.30;99.90
15969;DHT22;8085;53.472;9.794;2022-11-15T05:26:30;5.40;99.90
15969;DHT22;8085;53.472;9.794;2022-11-15T05:28:58;5.40;99.90
15969;DHT22;8085;53.472;9.794;2022-11-15T05:31:26;5.40;99.90
15969;DHT22;8085;53.472;9.794;2022-11-15T05:33:54;5.40;99.90
15969;DHT22;8085;53.472;9.794;2022-11-15T05:36:28;5.40;99.90
15969;DHT22;8085;53.472;9.794;2022-11-15T05:38:56;5.50;99.90
15969;DHT22;8085;53.472;9.794;2022-11-15T05:41:26;5.50;99.90
15969;DHT22;8085;53.472;9.794;2022-11-15T05:43:55;5.50;99.90
15969;DHT22;8085;53.472;9.794;2022-11-15T05:46:22;5.60;99.90
15969;DHT22;8085;53.472;9.794;2022-11-15T05:48:50;5.60;99.90
15969;DHT22;8085;53.472;9.794;2022-11-15T05:51:19;5.70;99.90
15969;DHT22;8085;53.472;9.794;2022-11-15T05:53:48;5.70;99.90
15969;DHT22;8085;53.472;9.794;2022-11-15T05:56:16;5.80;99.90
15969;DHT22;8085;53.472;9.794;2022-11-15T05:58:43;5.80;99.90
15969;DHT22;8085;53.472;9.794;2022-11-15T06:01:11;5.90;99.90
15969;DHT22;8085;53.472;9.794;2022-11-15T06:03:38;5.90;99.90
15969;DHT22;8085;53.472;9.794;2022-11-15T06:06:05;6.00;99.90
15969;DHT22;8085;53.472;9.794;2022-11-15T06:08:32;6.10;99.90
15969;DHT22;8085;53.472;9.794;2022-11-15T06:11:03;6.20;99.90
15969;DHT22;8085;53.472;9.794;2022-11-15T06:13:30;6.20;99.90
15969;DHT22;8085;53.472;9.794;2022-11-15T06:15:57;6.30;99.90
15969;DHT22;8085;53.472;9.794;2022-11-15T06:18:26;6.30;99.90
15969;DHT22;8085;53.472;9.794;2022-11-15T06:20:53;6.40;99.90
15969;DHT22;8085;53.472;9.794;2022-11-15T06:23:19;6.40;99.90
15969;DHT22;8085;53.472;9.794;2022-11-15T06:25:46;6.40;99.90
15969;DHT22;8085;53.472;9.794;2022-11-15T06:28:13;6.40;99.90
15969;DHT22;8085;53.472;9.794;2022-11-15T06:30:40;6.40;99.90
15969;DHT22;8085;53.472;9.794;2022-11-15T06:33:06;6.40;99.90
15969;DHT22;8085;53.472;9.794;2022-11-15T06:35:36;6.40;99.90
15969;DHT22;8085;53.472;9.794;2022-11-15T06:38:04;6.50;99.90
15969;DHT22;8085;53.472;9.794;2022-11-15T06:40:33;6.50;99.90
15969;DHT22;8085;53.472;9.794;2022-11-15T06:43:01;6.50;99.90
15969;DHT22;8085;53.472;9.794;2022-11-15T06:45:28;6.50;99.90
15969;DHT22;8085;53.472;9.794;2022-11-15T06:47:55;6.50;99.90
15969;DHT22;8085;53.472;9.794;2022-11-15T06:50:22;6.50;99.90
15969;DHT22;8085;53.472;9.794;2022-11-15T06:52:50;6.60;99.90
15969;DHT22;8085;53.472;9.794;2022-11-15T06:55:17;6.60;99.90
15969;DHT22;8085;53.472;9.794;2022-11-15T06:57:48;6.60;99.90
15969;DHT22;8085;53.472;9.794;2022-11-15T07:00:16;6.60;99.90
15969;DHT22;8085;53.472;9.794;2022-11-15T07:02:43;6.60;99.90
15969;DHT22;8085;53.472;9.794;2022-11-15T07:05:10;6.60;99.90
15969;DHT22;8085;53.472;9.794;2022-11-15T07:07:37;6.60;99.90
15969;DHT22;8085;53.472;9.794;2022-11-15T07:10:07;6.70;99.90
15969;DHT22;8085;53.472;9.794;2022-11-15T07:12:34;6.70;99.90
15969;DHT22;8085;53.472;9.794;2022-11-15T07:15:01;6.70;99.90
15969;DHT22;8085;53.472;9.794;2022-11-15T07:17:28;6.80;99.90
15969;DHT22;8085;53.472;9.794;2022-11-15T07:19:54;6.80;99.90
15969;DHT22;8085;53.472;9.794;2022-11-15T07:22:21;6.80;99.90
15969;DHT22;8085;53.472;9.794;2022-11-15T07:24:48;6.90;99.90
15969;DHT22;8085;53.472;9.794;2022-11-15T07:27:16;6.90;99.90
15969;DHT22;8085;53.472;9.794;2022-11-15T07:29:43;6.90;99.90
15969;DHT22;8085;53.472;9.794;2022-11-15T07:32:10;7.00;99.90
15969;DHT22;8085;53.472;9.794;2022-11-15T07:34:36;7.00;99.90
15969;DHT22;8085;53.472;9.794;2022-11-15T07:37:03;7.10;99.90
15969;DHT22;8085;53.472;9.794;2022-11-15T07:39:30;7.10;99.90
15969;DHT22;8085;53.472;9.794;2022-11-15T07:41:57;7.10;99.90
15969;DHT22;8085;53.472;9.794;2022-11-15T07:44:39;7.10;99.90
15969;DHT22;8085;53.472;9.794;2022-11-15T07:47:06;7.20;99.90
15969;DHT22;8085;53.472;9.794;2022-11-15T07:49:32;7.20;99.90
15969;DHT22;8085;53.472;9.794;2022-11-15T07:51:59;7.30;99.90
15969;DHT22;8085;53.472;9.794;2022-11-15T07:54:26;7.30;99.90
15969;DHT22;8085;53.472;9.794;2022-11-15T07:56:53;7.30;99.90
15969;DHT22;8085;53.472;9.794;2022-11-15T07:59:19;7.30;99.90
15969;DHT22;8085;53.472;9.794;2022-11-15T08:01:48;7.30;99.90
15969;DHT22;8085;53.472;9.794;2022-11-15T08:04:15;7.40;99.90
15969;DHT22;8085;53.472;9.794;2022-11-15T08:06:41;7.40;99.90
15969;DHT22;8085;53.472;9.794;2022-11-15T08:09:08;7.50;99.90
15969;DHT22;8085;53.472;9.794;2022-11-15T08:11:35;7.50;99.90
15969;DHT22;8085;53.472;9.794;2022-11-15T08:14:02;7.60;99.90
15969;DHT22;8085;53.472;9.794;2022-11-15T08:16:29;7.60;99.90
15969;DHT22;8085;53.472;9.794;2022-11-15T08:18:57;7.70;99.90
15969;DHT22;8085;53.472;9.794;2022-11-15T08:21:24;7.70;99.90
15969;DHT22;8085;53.472;9.794;2022-11-15T08:23:51;7.70;99.90
15969;DHT22;8085;53.472;9.794;2022-11-15T08:26:18;7.70;99.90
15969;DHT22;8085;53.472;9.794;2022-11-15T08:28:45;7.70;99.90
15969;DHT22;8085;53.472;9.794;2022-11-15T08:31:14;7.80;99.90
15969;DHT22;8085;53.472;9.794;2022-11-15T08:33:42;7.80;99.90
15969;DHT22;8085;53.472;9.794;2022-11-15T08:36:13;7.90;99.90
15969;DHT22;8085;53.472;9.794;2022-11-15T08:38:41;7.90;99.90
15969;DHT22;8085;53.472;9.794;2022-11-15T08:41:12;7.90;99.90
15969;DHT22;8085;53.472;9.794;2022-11-15T08:43:40;8.00;99.90
15969;DHT22;8085;53.472;9.794;2022-11-15T08:46:08;8.00;99.90
15969;DHT22;8085;53.472;9.794;2022-11-15T08:48:37;8.10;99.90
15969;DHT22;8085;53.472;9.794;2022-11-15T08:51:04;8.10;99.90
15969;DHT22;8085;53.472;9.794;2022-11-15T08:53:33;8.20;99.90
15969;DHT22;8085;53.472;9.794;2022-11-15T08:56:00;8.30;99.90
15969;DHT22;8085;53.472;9.794;2022-11-15T08:58:27;8.40;99.90
15969;DHT22;8085;53.472;9.794;2022-11-15T09:00:54;8.50;99.90
15969;DHT22;8085;53.472;9.794;2022-11-15T09:03:21;8.60;99.90
15969;DHT22;8085;53.472;9.794;2022-11-15T09:05:48;8.80;99.90
15969;DHT22;8085;53.472;9.794;2022-11-15T09:08:15;8.90;99.90
15969;DHT22;8085;53.472;9.794;2022-11-15T09:10:43;9.00;99.90
15969;DHT22;8085;53.472;9.794;2022-11-15T09:13:10;9.00;99.90
15969;DHT22;8085;53.472;9.794;2022-11-15T09:15:37;9.10;99.90
15969;DHT22;8085;53.472;9.794;2022-11-15T09:18:03;9.20;99.90
15969;DHT22;8085;53.472;9.794;2022-11-15T09:20:30;9.20;99.90
15969;DHT22;8085;53.472;9.794;2022-11-15T09:22:59;9.20;99.90
15969;DHT22;8085;53.472;9.794;2022-11-15T09:25:26;9.30;99.90
15969;DHT22;8085;53.472;9.794;2022-11-15T09:27:54;9.40;99.90
15969;DHT22;8085;53.472;9.794;2022-11-15T09:30:22;9.50;99.90
15969;DHT22;8085;53.472;9.794;2022-11-15T09:32:49;9.60;99.90
15969;DHT22;8085;53.472;9.794;2022-11-15T09:35:16;9.70;99.90
15969;DHT22;8085;53.472;9.794;2022-11-15T09:37:43;9.80;99.90
15969;DHT22;8085;53.472;9.794;2022-11-15T09:40:11;9.90;99.90
15969;DHT22;8085;53.472;9.794;2022-11-15T09:42:52;10.00;99.90
15969;DHT22;8085;53.472;9.794;2022-11-15T09:45:30;10.10;99.90
15969;DHT22;8085;53.472;9.794;2022-11-15T09:48:15;10.10;99.90
15969;DHT22;8085;53.472;9.794;2022-11-15T09:50:49;10.20;99.90
15969;DHT22;8085;53.472;9.794;2022-11-15T09:53:21;10.20;99.90
15969;DHT22;8085;53.472;9.794;2022-11-15T09:55:58;10.30;99.90
15969;DHT22;8085;53.472;9.794;2022-11-15T09:58:33;10.30;99.90
15969;DHT22;8085;53.472;9.794;2022-11-15T10:01:07;10.30;99.90
15969;DHT22;8085;53.472;9.794;2022-11-15T10:03:36;10.40;99.90
15969;DHT22;8085;53.472;9.794;2022-11-15T10:06:05;10.40;99.90
15969;DHT22;8085;53.472;9.794;2022-11-15T10:08:46;10.50;99.90
15969;DHT22;8085;53.472;9.794;2022-11-15T10:11:17;10.50;99.90
15969;DHT22;8085;53.472;9.794;2022-11-15T10:13:46;10.60;99.90
15969;DHT22;8085;53.472;9.794;2022-11-15T10:16:31;10.60;99.90
15969;DHT22;8085;53.472;9.794;2022-11-15T10:19:06;10.60;99.90
15969;DHT22;8085;53.472;9.794;2022-11-15T10:21:39;10.60;99.90
15969;DHT22;8085;53.472;9.794;2022-11-15T10:24:11;10.60;99.90
15969;DHT22;8085;53.472;9.794;2022-11-15T10:26:38;10.60;99.90
15969;DHT22;8085;53.472;9.794;2022-11-15T10:29:05;10.60;99.90
15969;DHT22;8085;53.472;9.794;2022-11-15T10:31:33;10.50;99.90
15969;DHT22;8085;53.472;9.794;2022-11-15T10:34:11;10.50;99.90
15969;DHT22;8085;53.472;9.794;2022-11-15T10:36:44;10.40;99.90
15969;DHT22;8085;53.472;9.794;2022-11-15T10:39:12;10.40;99.90
15969;DHT22;8085;53.472;9.794;2022-11-15T10:41:41;10.30;99.90
15969;DHT22;8085;53.472;9.794;2022-11-15T10:44:12;10.30;99.90
15969;DHT22;8085;53.472;9.794;2022-11-15T10:46:46;10.30;99.90
15969;DHT22;8085;53.472;9.794;2022-11-15T10:49:15;10.30;99.90
15969;DHT22;8085;53.472;9.794;2022-11-15T10:51:45;10.30;99.90
15969;DHT22;8085;53.472;9.794;2022-11-15T10:54:15;10.30;99.90
15969;DHT22;8085;53.472;9.794;2022-11-15T10:56:49;10.30;99.90
15969;DHT22;8085;53.472;9.794;2022-11-15T10:59:23;10.40;99.90
15969;DHT22;8085;53.472;9.794;2022-11-15T11:01:53;10.40;99.90
15969;DHT22;8085;53.472;9.794;2022-11-15T11:04:20;10.50;99.90
15969;DHT22;8085;53.472;9.794;2022-11-15T11:06:48;10.40;99.90
15969;DHT22;8085;53.472;9.794;2022-11-15T11:09:27;10.50;99.90
15969;DHT22;8085;53.472;9.794;2022-11-15T11:11:55;10.50;99.90
15969;DHT22;8085;53.472;9.794;2022-11-15T11:14:23;10.50;99.90
15969;DHT22;8085;53.472;9.794;2022-11-15T11:16:56;10.50;99.90
15969;DHT22;8085;53.472;9.794;2022-11-15T11:19:49;10.50;99.90
15969;DHT22;8085;53.472;9.794;2022-11-15T11:22:25;10.50;99.90
15969;DHT22;8085;53.472;9.794;2022-11-15T11:25:07;10.60;99.90
15969;DHT22;8085;53.472;9.794;2022-11-15T11:27:43;10.60;99.90
15969;DHT22;8085;53.472;9.794;2022-11-15T11:30:14;10.70;99.90
15969;DHT22;8085;53.472;9.794;2022-11-15T11:32:55;10.80;99.90
15969;DHT22;8085;53.472;9.794;2022-11-15T11:35:29;10.90;99.90
15969;DHT22;8085;53.472;9.794;2022-11-15T11:38:07;11.00;99.90
15969;DHT22;8085;53.472;9.794;2022-11-15T11:40:43;11.10;99.90
15969;DHT22;8085;53.472;9.794;2022-11-15T11:43:16;11.20;99.90
15969;DHT22;8085;53.472;9.794;2022-11-15T11:46:05;11.30;99.90
15969;DHT22;8085;53.472;9.794;2022-11-15T11:48:43;11.40;99.90
15969;DHT22;8085;53.472;9.794;2022-11-15T11:51:15;11.50;99.90
15969;DHT22;8085;53.472;9.794;2022-11-15T11:53:48;11.60;99.90
15969;DHT22;8085;53.472;9.794;2022-11-15T11:56:23;11.80;99.90
15969;DHT22;8085;53.472;9.794;2022-11-15T11:58:53;12.00;99.90
15969;DHT22;8085;53.472;9.794;2022-11-15T12:01:23;12.10;99.90
15969;DHT22;8085;53.472;9.794;2022-11-15T12:03:55;12.20;99.90
15969;DHT22;8085;53.472;9.794;2022-11-15T12:06:29;12.30;99.90
15969;DHT22;8085;53.472;9.794;2022-11-15T12:09:02;12.40;99.90
15969;DHT22;8085;53.472;9.794;2022-11-15T12:11:35;12.50;99.90
15969;DHT22;8085;53.472;9.794;2022-11-15T12:14:08;12.60;99.90
15969;DHT22;8085;53.472;9.794;2022-11-15T12:16:38;12.60;99.90
15969;DHT22;8085;53.472;9.794;2022-11-15T12:19:08;12.70;99.90
15969;DHT22;8085;53.472;9.794;2022-11-15T12:21:40;12.70;99.90
15969;DHT22;8085;53.472;9.794;2022-11-15T12:24:14;12.70;99.90
15969;DHT22;8085;53.472;9.794;2022-11-15T12:26:50;12.70;99.90
15969;DHT22;8085;53.472;9.794;2022-11-15T12:29:21;12.70;99.90
15969;DHT22;8085;53.472;9.794;2022-11-15T12:31:52;12.80;99.90
15969;DHT22;8085;53.472;9.794;2022-11-15T12:34:42;12.80;99.90
15969;DHT22;8085;53.472;9.794;2022-11-15T12:40:29;12.70;99.90
15969;DHT22;8085;53.472;9.794;2022-11-15T12:42:59;12.70;99.90
15969;DHT22;8085;53.472;9.794;2022-11-15T12:45:28;12.60;99.90
15969;DHT22;8085;53.472;9.794;2022-11-15T12:50:59;12.50;99.90
15969;DHT22;8085;53.472;9.794;2022-11-15T12:53:28;12.50;99.90
15969;DHT22;8085;53.472;9.794;2022-11-15T12:56:18;12.50;99.90
15969;DHT22;8085;53.472;9.794;2022-11-15T12:58:48;12.50;99.90
15969;DHT22;8085;53.472;9.794;2022-11-15T13:04:23;12.40;99.90
15969;DHT22;8085;53.472;9.794;2022-11-15T13:06:54;12.40;99.90
15969;DHT22;8085;53.472;9.794;2022-11-15T13:12:54;12.50;99.90
15969;DHT22;8085;53.472;9.794;2022-11-15T13:15:37;12.50;99.90
15969;DHT22;8085;53.472;9.794;2022-11-15T13:18:30;12.60;99.90
15969;DHT22;8085;53.472;9.794;2022-11-15T13:20:58;12.60;99.90
15969;DHT22;8085;53.472;9.794;2022-11-15T13:23:26;12.60;99.90
15969;DHT22;8085;53.472;9.794;2022-11-15T13:26:10;12.60;99.90
15969;DHT22;8085;53.472;9.794;2022-11-15T13:28:41;12.50;99.90
15969;DHT22;8085;53.472;9.794;2022-11-15T13:31:27;12.50;99.90
15969;DHT22;8085;53.472;9.794;2022-11-15T13:33:58;12.40;99.90
15969;DHT22;8085;53.472;9.794;2022-11-15T13:36:28;12.40;99.90
15969;DHT22;8085;53.472;9.794;2022-11-15T13:39:02;12.40;99.90
15969;DHT22;8085;53.472;9.794;2022-11-15T13:41:31;12.30;99.90
15969;DHT22;8085;53.472;9.794;2022-11-15T13:43:59;12.30;99.90
15969;DHT22;8085;53.472;9.794;2022-11-15T13:46:26;12.30;99.90
15969;DHT22;8085;53.472;9.794;2022-11-15T13:48:57;12.30;99.90
15969;DHT22;8085;53.472;9.794;2022-11-15T13:51:31;12.30;99.90
15969;DHT22;8085;53.472;9.794;2022-11-15T13:54:12;12.40;99.90
15969;DHT22;8085;53.472;9.794;2022-11-15T13:56:42;12.40;99.90
15969;DHT22;8085;53.472;9.794;2022-11-15T13:59:14;12.40;99.90
15969;DHT22;8085;53.472;9.794;2022-11-15T14:01:42;12.40;99.90
15969;DHT22;8085;53.472;9.794;2022-11-15T14:04:12;12.50;99.90
15969;DHT22;8085;53.472;9.794;2022-11-15T14:06:44;12.50;99.90
15969;DHT22;8085;53.472;9.794;2022-11-15T14:09:32;12.60;99.90
15969;DHT22;8085;53.472;9.794;2022-11-15T14:12:01;12.50;99.90
15969;DHT22;8085;53.472;9.794;2022-11-15T14:14:29;12.50;99.90
15969;DHT22;8085;53.472;9.794;2022-11-15T14:16:57;12.40;99.90
15969;DHT22;8085;53.472;9.794;2022-11-15T14:19:38;12.40;99.90
15969;DHT22;8085;53.472;9.794;2022-11-15T14:22:18;12.30;99.90
15969;DHT22;8085;53.472;9.794;2022-11-15T14:25:12;12.30;99.90
15969;DHT22;8085;53.472;9.794;2022-11-15T14:27:40;12.30;99.90
15969;DHT22;8085;53.472;9.794;2022-11-15T14:30:12;12.20;99.90
15969;DHT22;8085;53.472;9.794;2022-11-15T14:32:43;12.20;99.90
15969;DHT22;8085;53.472;9.794;2022-11-15T14:35:15;12.20;99.90
15969;DHT22;8085;53.472;9.794;2022-11-15T14:37:42;12.20;99.90
15969;DHT22;8085;53.472;9.794;2022-11-15T14:40:14;12.20;99.90
15969;DHT22;8085;53.472;9.794;2022-11-15T14:42:43;12.10;99.90
15969;DHT22;8085;53.472;9.794;2022-11-15T14:45:13;12.10;99.90
15969;DHT22;8085;53.472;9.794;2022-11-15T14:47:41;12.00;99.90
15969;DHT22;8085;53.472;9.794;2022-11-15T14:50:11;11.90;99.90
15969;DHT22;8085;53.472;9.794;2022-11-15T14:52:38;11.90;99.90
15969;DHT22;8085;53.472;9.794;2022-11-15T14:55:14;11.80;99.90
15969;DHT22;8085;53.472;9.794;2022-11-15T14:57:42;11.70;99.90
15969;DHT22;8085;53.472;9.794;2022-11-15T15:00:10;11.60;99.90
15969;DHT22;8085;53.472;9.794;2022-11-15T15:02:37;11.60;99.90
15969;DHT22;8085;53.472;9.794;2022-11-15T15:05:13;11.50;99.90
15969;DHT22;8085;53.472;9.794;2022-11-15T15:07:40;11.50;99.90
15969;DHT22;8085;53.472;9.794;2022-11-15T15:10:08;11.40;99.90
15969;DHT22;8085;53.472;9.794;2022-11-15T15:12:36;11.40;99.90
15969;DHT22;8085;53.472;9.794;2022-11-15T15:15:05;11.30;99.90
15969;DHT22;8085;53.472;9.794;2022-11-15T15:17:32;11.20;99.90
15969;DHT22;8085;53.472;9.794;2022-11-15T15:19:58;11.20;99.90
15969;DHT22;8085;53.472;9.794;2022-11-15T15:22:28;11.00;99.90
15969;DHT22;8085;53.472;9.794;2022-11-15T15:24:56;11.00;99.90
15969;DHT22;8085;53.472;9.794;2022-11-15T15:27:22;10.90;99.90
15969;DHT22;8085;53.472;9.794;2022-11-15T15:29:50;10.80;99.90
15969;DHT22;8085;53.472;9.794;2022-11-15T15:32:17;10.70;99.90
15969;DHT22;8085;53.472;9.794;2022-11-15T15:34:44;10.60;99.90
15969;DHT22;8085;53.472;9.794;2022-11-15T15:37:22;10.50;99.90
15969;DHT22;8085;53.472;9.794;2022-11-15T15:39:50;10.50;99.90
15969;DHT22;8085;53.472;9.794;2022-11-15T15:42:19;10.50;99.90
15969;DHT22;8085;53.472;9.794;2022-11-15T15:44:46;10.40;99.90
15969;DHT22;8085;53.472;9.794;2022-11-15T15:47:17;10.40;99.90
15969;DHT22;8085;53.472;9.794;2022-11-15T15:49:45;10.30;99.90
15969;DHT22;8085;53.472;9.794;2022-11-15T15:52:11;10.20;99.90
15969;DHT22;8085;53.472;9.794;2022-11-15T15:54:38;10.20;99.90
15969;DHT22;8085;53.472;9.794;2022-11-15T15:57:06;10.10;99.90
15969;DHT22;8085;53.472;9.794;2022-11-15T15:59:33;10.10;99.90
15969;DHT22;8085;53.472;9.794;2022-11-15T16:02:00;10.00;99.90
15969;DHT22;8085;53.472;9.794;2022-11-15T16:04:28;10.10;99.90
15969;DHT22;8085;53.472;9.794;2022-11-15T16:06:58;10.00;99.90
15969;DHT22;8085;53.472;9.794;2022-11-15T16:09:25;10.10;99.90
15969;DHT22;8085;53.472;9.794;2022-11-15T16:12:06;10.00;99.90
15969;DHT22;8085;53.472;9.794;2022-11-15T16:14:33;10.10;99.90
15969;DHT22;8085;53.472;9.794;2022-11-15T16:16:59;10.10;99.90
15969;DHT22;8085;53.472;9.794;2022-11-15T16:19:28;10.10;99.90
15969;DHT22;8085;53.472;9.794;2022-11-15T16:21:54;10.00;99.90
15969;DHT22;8085;53.472;9.794;2022-11-15T16:24:22;10.00;99.90
15969;DHT22;8085;53.472;9.794;2022-11-15T16:26:50;10.00;99.90
15969;DHT22;8085;53.472;9.794;2022-11-15T16:29:17;10.00;99.90